Alida S — ICEQ — position and weather

sailwx.info

Track history (hours):
 
Tides and Currents Weather Stations Pressure Air Temp Water Temp Dewpoint Dewpoint Depression Visibility Wind Speed Wind Dir Waves Ship Positions

Alida S

Last reported at 2018-Apr-24 15:01 UTC. Time now 2018-Apr-25 01:01 UTC.
Position N 37°47' E 016°03'.

Length 116 m; draft 6 m.

Type: Cargo ship. MMSI: 247205900.

Date/timePositionNaut miles runAvg speedWind from/ knotsBaromVisibWave heightAir tempDewpointWater temp
2018-Apr-24 15:01N 37°47' E 016°03'110.0
2018-Apr-24 14:58N 37°47' E 016°03'510.6
2018-Apr-24 14:30N 37°43' E 015°60'510.1
2018-Apr-24 14:00N 37°38' E 015°56'610.5
2018-Apr-24 13:27N 37°33' E 015°52'510.7
2018-Apr-24 12:59N 37°29' E 015°49'610.9
2018-Apr-24 12:26N 37°24' E 015°45'410.1
2018-Apr-24 12:00N 37°21' E 015°41'3210.5
2018-Apr-24 08:56N 36°53' E 015°21'511.2
2018-Apr-24 08:30N 36°49' E 015°18'510.8
2018-Apr-24 08:00N 36°44' E 015°15'610.8
2018-Apr-24 07:30N 36°39' E 015°12'5 9.8
2018-Apr-24 07:00N 36°35' E 015°09'510.8
2018-Apr-24 06:30N 36°34' E 015°02'611.3
2018-Apr-24 06:00N 36°33' E 014°55'611.3
2018-Apr-24 05:30N 36°31' E 014°48'611.4
2018-Apr-24 05:00N 36°30' E 014°41'611.3
2018-Apr-24 04:30N 36°29' E 014°35'510.5
2018-Apr-24 04:00N 36°28' E 014°28'510.3
2018-Apr-24 03:30N 36°27' E 014°22'1110.6
2018-Apr-24 02:28N 36°25' E 014°09'510.3
2018-Apr-24 02:00N 36°24' E 014°03'511.0
2018-Apr-24 01:30N 36°23' E 013°56'611.0
2018-Apr-24 00:59N 36°22' E 013°49'510.4
2018-Apr-24 00:30N 36°21' E 013°43'510.7
2018-Apr-24 00:00N 36°19' E 013°37'510.7
2018-Apr-23 23:29N 36°17' E 013°30'510.6
2018-Apr-23 22:59N 36°16' E 013°24'611.1
2018-Apr-23 22:28N 36°15' E 013°17'  
2018-Apr-20 01:15N 38°37' E 012°30'311.3
2018-Apr-20 00:57N 38°40' E 012°33'511.4
2018-Apr-20 00:31N 38°44' E 012°37'611.8
2018-Apr-19 23:59N 38°49' E 012°42'711.9
2018-Apr-19 23:24N 38°54' E 012°48'512.5
2018-Apr-19 22:58N 38°58' E 012°52'2412.3
2018-Apr-19 21:00N 39°16' E 013°12'711.7
2018-Apr-19 20:25N 39°22' E 013°18'511.7
2018-Apr-19 19:59N 39°26' E 013°22'2511.6
2018-Apr-19 17:52N 39°44' E 013°43'4011.4
2018-Apr-19 14:22N 40°15' E 014°17'711.2
2018-Apr-19 13:43N 40°20' E 014°23'211.4
2018-Apr-19 13:30N 40°22' E 014°25'611.5
2018-Apr-19 12:59N 40°26' E 014°30'611.8
2018-Apr-19 12:30N 40°31' E 014°35'611.7
2018-Apr-19 12:00N 40°35' E 014°40'2 0.1
2018-Apr-18 03:51N 40°37' E 014°41'3 9.1
2018-Apr-18 03:30N 40°36' E 014°37'5 9.2
2018-Apr-18 03:00N 40°34' E 014°31'5 9.1
2018-Apr-18 02:30N 40°33' E 014°26'5 9.3
2018-Apr-18 02:00N 40°32' E 014°20'5 9.8
2018-Apr-18 01:30N 40°31' E 014°13'5 9.8
2018-Apr-18 00:59N 40°31' E 014°07'4 9.1
2018-Apr-18 00:30N 40°33' E 014°02'5 9.6
2018-Apr-18 00:00N 40°36' E 013°57'5 9.7
2018-Apr-17 23:30N 40°39' E 013°52'5 9.4
2018-Apr-17 23:00N 40°42' E 013°47'6 9.6
2018-Apr-17 22:25N 40°45' E 013°41'410.0
2018-Apr-17 21:59N 40°48' E 013°36'15510.6
2018-Apr-17 07:24N 42°27' E 010°57'410.5
2018-Apr-17 07:00N 42°30' E 010°53'610.8
2018-Apr-17 06:28N 42°34' E 010°48'511.0
2018-Apr-17 06:00N 42°39' E 010°44'611.3
2018-Apr-17 05:30N 42°43' E 010°39'611.0
2018-Apr-17 05:00N 42°48' E 010°35'611.1
2018-Apr-17 04:30N 42°52' E 010°30'611.5
2018-Apr-17 04:00N 42°56' E 010°25'611.2
2018-Apr-17 03:30N 43°00' E 010°20'510.6
2018-Apr-17 03:00N 43°04' E 010°14'611.2
2018-Apr-17 02:30N 43°08' E 010°09'510.9
2018-Apr-17 02:00N 43°12' E 010°04'611.4
2018-Apr-17 01:30N 43°15' E 009°58'611.4
2018-Apr-17 01:00N 43°19' E 009°52'510.7
2018-Apr-17 00:30N 43°22' E 009°46'611.2
2018-Apr-17 00:00N 43°26' E 009°41'611.7
2018-Apr-16 23:30N 43°30' E 009°35'611.3
2018-Apr-16 23:00N 43°34' E 009°29'611.1
2018-Apr-16 22:30N 43°38' E 009°23'510.5
2018-Apr-16 22:00N 43°41' E 009°17'510.8
2018-Apr-16 21:30N 43°44' E 009°12'510.8
2018-Apr-16 21:00N 43°48' E 009°06'510.7
2018-Apr-16 20:30N 43°52' E 009°01'611.3
2018-Apr-16 20:00N 43°56' E 008°56'611.5
2018-Apr-16 19:30N 44°00' E 008°51'511.0
2018-Apr-16 19:00N 44°05' E 008°46'611.1
2018-Apr-16 18:30N 44°09' E 008°41'510.9
2018-Apr-16 18:00N 44°14' E 008°37'510.9
2018-Apr-16 17:30N 44°18' E 008°32'2 3.9
2018-Apr-16 17:00N 44°19' E 008°30'0 0.0
2018-Apr-16 16:30N 44°19' E 008°30'0 0.0
2018-Apr-16 16:00N 44°19' E 008°30'0 0.0
2018-Apr-16 15:30N 44°19' E 008°30'0 0.0
2018-Apr-16 15:00N 44°19' E 008°30'0 0.0
2018-Apr-16 14:30N 44°19' E 008°30'0 0.0
2018-Apr-16 14:00N 44°19' E 008°30'0 0.0
2018-Apr-16 13:30N 44°19' E 008°30'0 0.0
2018-Apr-16 13:00N 44°19' E 008°30'0 0.0
2018-Apr-16 12:30N 44°19' E 008°30'0 0.0
2018-Apr-16 12:00N 44°19' E 008°30'0 0.0
2018-Apr-16 11:30N 44°19' E 008°30'0 0.0
2018-Apr-16 11:00N 44°19' E 008°30'0 0.0
2018-Apr-16 10:30N 44°19' E 008°30'0 0.0
2018-Apr-16 10:00N 44°19' E 008°30'0 0.0
2018-Apr-16 09:30N 44°19' E 008°30'0 0.0
2018-Apr-16 09:00N 44°19' E 008°30'0 0.0
2018-Apr-16 08:18N 44°19' E 008°30'0 0.0
2018-Apr-16 08:00N 44°19' E 008°30'0 0.0
2018-Apr-16 07:30N 44°19' E 008°30'0 0.0
2018-Apr-16 07:00N 44°19' E 008°30'0 0.0
2018-Apr-16 06:30N 44°19' E 008°30'0 0.0
2018-Apr-16 06:00N 44°19' E 008°30'0 0.0
2018-Apr-16 05:30N 44°19' E 008°30'0 0.1
2018-Apr-16 05:00N 44°19' E 008°30'1 1.7
2018-Apr-16 04:28N 44°18' E 008°31'0 0.2
2018-Apr-16 03:58N 44°18' E 008°31'0 0.1
2018-Apr-16 03:28N 44°18' E 008°31'0 0.1
2018-Apr-16 02:58N 44°18' E 008°31'0 0.1
2018-Apr-16 02:28N 44°18' E 008°31'0 0.0
2018-Apr-16 01:58N 44°18' E 008°31'0 0.0
2018-Apr-16 01:28N 44°18' E 008°31'0 0.0
2018-Apr-16 00:58N 44°18' E 008°31'0 0.1
2018-Apr-16 00:28N 44°18' E 008°31'0 0.0
2018-Apr-15 23:58N 44°18' E 008°31'0 0.0
2018-Apr-15 23:28N 44°18' E 008°31'0 0.0
2018-Apr-15 22:58N 44°18' E 008°31'0 0.0
2018-Apr-15 22:28N 44°18' E 008°31'0 0.0
2018-Apr-15 21:58N 44°18' E 008°31'0 0.0
2018-Apr-15 21:28N 44°18' E 008°31'0 0.0
2018-Apr-15 20:58N 44°18' E 008°31'0 0.0
2018-Apr-15 20:28N 44°18' E 008°31'0 0.0
2018-Apr-15 19:58N 44°18' E 008°31'0 0.0
2018-Apr-15 19:28N 44°18' E 008°31'0 0.0
2018-Apr-15 18:58N 44°18' E 008°31'0 0.0
2018-Apr-15 18:28N 44°18' E 008°31'0 0.0
2018-Apr-15 17:58N 44°18' E 008°31'0 0.0
2018-Apr-15 17:28N 44°18' E 008°31'0 0.0
2018-Apr-15 16:58N 44°18' E 008°31'0 0.0
2018-Apr-15 16:28N 44°18' E 008°31'0 0.0
2018-Apr-15 15:58N 44°18' E 008°31'0 0.0
2018-Apr-15 15:28N 44°18' E 008°31'0 0.0
2018-Apr-15 14:58N 44°18' E 008°31'0 0.0
2018-Apr-15 14:28N 44°18' E 008°31'0 0.0
2018-Apr-15 13:58N 44°18' E 008°31'0 0.0
2018-Apr-15 13:28N 44°18' E 008°31'0 0.0
2018-Apr-15 12:57N 44°18' E 008°31'1 1.6
2018-Apr-15 12:30N 44°17' E 008°31'5 9.0
2018-Apr-15 12:00N 44°13' E 008°31'4 8.9
2018-Apr-15 11:30N 44°08' E 008°30'5 9.3
2018-Apr-15 11:00N 44°04' E 008°27'5 9.6
2018-Apr-15 10:28N 43°60' E 008°23'46 9.9
2018-Apr-15 05:47N 43°30' E 007°35'310.5
2018-Apr-15 05:30N 43°28' E 007°31'510.0
2018-Apr-15 05:00N 43°25' E 007°26'510.0
2018-Apr-15 04:29N 43°22' E 007°20'510.1
2018-Apr-15 04:00N 43°19' E 007°15'510.6
2018-Apr-15 03:30N 43°16' E 007°09'611.0
2018-Apr-15 03:00N 43°12' E 007°03'  
Track history (hours):
 
Tides and Currents Weather Stations Pressure Air Temp Water Temp Dewpoint Dewpoint Depression Visibility Wind Speed Wind Dir Waves Ship Positions

Alida S

Last reported at 2018-Apr-24 15:01 UTC. Time now 2018-Apr-25 01:01 UTC.
Position N 37°47' E 016°03'.

Length 116 m; draft 6 m.

Type: Cargo ship. MMSI: 247205900.

Date/timePositionNaut miles runAvg speedWind from/ knotsBaromVisibWave heightAir tempDewpointWater temp
2018-Apr-24 15:01N 37°47' E 016°03'110.0
2018-Apr-24 14:58N 37°47' E 016°03'510.6
2018-Apr-24 14:30N 37°43' E 015°60'510.1
2018-Apr-24 14:00N 37°38' E 015°56'610.5
2018-Apr-24 13:27N 37°33' E 015°52'510.7
2018-Apr-24 12:59N 37°29' E 015°49'610.9
2018-Apr-24 12:26N 37°24' E 015°45'410.1
2018-Apr-24 12:00N 37°21' E 015°41'3210.5
2018-Apr-24 08:56N 36°53' E 015°21'511.2
2018-Apr-24 08:30N 36°49' E 015°18'510.8
2018-Apr-24 08:00N 36°44' E 015°15'610.8
2018-Apr-24 07:30N 36°39' E 015°12'5 9.8
2018-Apr-24 07:00N 36°35' E 015°09'510.8
2018-Apr-24 06:30N 36°34' E 015°02'611.3
2018-Apr-24 06:00N 36°33' E 014°55'611.3
2018-Apr-24 05:30N 36°31' E 014°48'611.4
2018-Apr-24 05:00N 36°30' E 014°41'611.3
2018-Apr-24 04:30N 36°29' E 014°35'510.5
2018-Apr-24 04:00N 36°28' E 014°28'510.3
2018-Apr-24 03:30N 36°27' E 014°22'1110.6
2018-Apr-24 02:28N 36°25' E 014°09'510.3
2018-Apr-24 02:00N 36°24' E 014°03'511.0
2018-Apr-24 01:30N 36°23' E 013°56'611.0
2018-Apr-24 00:59N 36°22' E 013°49'510.4
2018-Apr-24 00:30N 36°21' E 013°43'510.7
2018-Apr-24 00:00N 36°19' E 013°37'510.7
2018-Apr-23 23:29N 36°17' E 013°30'510.6
2018-Apr-23 22:59N 36°16' E 013°24'611.1
2018-Apr-23 22:28N 36°15' E 013°17'  
2018-Apr-20 01:15N 38°37' E 012°30'311.3
2018-Apr-20 00:57N 38°40' E 012°33'511.4
2018-Apr-20 00:31N 38°44' E 012°37'611.8
2018-Apr-19 23:59N 38°49' E 012°42'711.9
2018-Apr-19 23:24N 38°54' E 012°48'512.5
2018-Apr-19 22:58N 38°58' E 012°52'2412.3
2018-Apr-19 21:00N 39°16' E 013°12'711.7
2018-Apr-19 20:25N 39°22' E 013°18'511.7
2018-Apr-19 19:59N 39°26' E 013°22'2511.6
2018-Apr-19 17:52N 39°44' E 013°43'4011.4
2018-Apr-19 14:22N 40°15' E 014°17'711.2
2018-Apr-19 13:43N 40°20' E 014°23'211.4
2018-Apr-19 13:30N 40°22' E 014°25'611.5
2018-Apr-19 12:59N 40°26' E 014°30'611.8
2018-Apr-19 12:30N 40°31' E 014°35'611.7
2018-Apr-19 12:00N 40°35' E 014°40'2 0.1
2018-Apr-18 03:51N 40°37' E 014°41'3 9.1
2018-Apr-18 03:30N 40°36' E 014°37'5 9.2
2018-Apr-18 03:00N 40°34' E 014°31'5 9.1
2018-Apr-18 02:30N 40°33' E 014°26'5 9.3
2018-Apr-18 02:00N 40°32' E 014°20'5 9.8
2018-Apr-18 01:30N 40°31' E 014°13'5 9.8
2018-Apr-18 00:59N 40°31' E 014°07'4 9.1
2018-Apr-18 00:30N 40°33' E 014°02'5 9.6
2018-Apr-18 00:00N 40°36' E 013°57'5 9.7
2018-Apr-17 23:30N 40°39' E 013°52'5 9.4
2018-Apr-17 23:00N 40°42' E 013°47'6 9.6
2018-Apr-17 22:25N 40°45' E 013°41'410.0
2018-Apr-17 21:59N 40°48' E 013°36'15510.6
2018-Apr-17 07:24N 42°27' E 010°57'410.5
2018-Apr-17 07:00N 42°30' E 010°53'610.8
2018-Apr-17 06:28N 42°34' E 010°48'511.0
2018-Apr-17 06:00N 42°39' E 010°44'611.3
2018-Apr-17 05:30N 42°43' E 010°39'611.0
2018-Apr-17 05:00N 42°48' E 010°35'611.1
2018-Apr-17 04:30N 42°52' E 010°30'611.5
2018-Apr-17 04:00N 42°56' E 010°25'611.2
2018-Apr-17 03:30N 43°00' E 010°20'510.6
2018-Apr-17 03:00N 43°04' E 010°14'611.2
2018-Apr-17 02:30N 43°08' E 010°09'510.9
2018-Apr-17 02:00N 43°12' E 010°04'611.4
2018-Apr-17 01:30N 43°15' E 009°58'611.4
2018-Apr-17 01:00N 43°19' E 009°52'510.7
2018-Apr-17 00:30N 43°22' E 009°46'611.2
2018-Apr-17 00:00N 43°26' E 009°41'611.7
2018-Apr-16 23:30N 43°30' E 009°35'611.3
2018-Apr-16 23:00N 43°34' E 009°29'611.1
2018-Apr-16 22:30N 43°38' E 009°23'510.5
2018-Apr-16 22:00N 43°41' E 009°17'510.8
2018-Apr-16 21:30N 43°44' E 009°12'510.8
2018-Apr-16 21:00N 43°48' E 009°06'510.7
2018-Apr-16 20:30N 43°52' E 009°01'611.3
2018-Apr-16 20:00N 43°56' E 008°56'611.5
2018-Apr-16 19:30N 44°00' E 008°51'511.0
2018-Apr-16 19:00N 44°05' E 008°46'611.1
2018-Apr-16 18:30N 44°09' E 008°41'510.9
2018-Apr-16 18:00N 44°14' E 008°37'510.9
2018-Apr-16 17:30N 44°18' E 008°32'2 3.9
2018-Apr-16 17:00N 44°19' E 008°30'0 0.0
2018-Apr-16 16:30N 44°19' E 008°30'0 0.0
2018-Apr-16 16:00N 44°19' E 008°30'0 0.0
2018-Apr-16 15:30N 44°19' E 008°30'0 0.0
2018-Apr-16 15:00N 44°19' E 008°30'0 0.0
2018-Apr-16 14:30N 44°19' E 008°30'0 0.0
2018-Apr-16 14:00N 44°19' E 008°30'0 0.0
2018-Apr-16 13:30N 44°19' E 008°30'0 0.0
2018-Apr-16 13:00N 44°19' E 008°30'0 0.0
2018-Apr-16 12:30N 44°19' E 008°30'0 0.0
2018-Apr-16 12:00N 44°19' E 008°30'0 0.0
2018-Apr-16 11:30N 44°19' E 008°30'0 0.0
2018-Apr-16 11:00N 44°19' E 008°30'0 0.0
2018-Apr-16 10:30N 44°19' E 008°30'0 0.0
2018-Apr-16 10:00N 44°19' E 008°30'0 0.0
2018-Apr-16 09:30N 44°19' E 008°30'0 0.0
2018-Apr-16 09:00N 44°19' E 008°30'0 0.0
2018-Apr-16 08:18N 44°19' E 008°30'0 0.0
2018-Apr-16 08:00N 44°19' E 008°30'0 0.0
2018-Apr-16 07:30N 44°19' E 008°30'0 0.0
2018-Apr-16 07:00N 44°19' E 008°30'0 0.0
2018-Apr-16 06:30N 44°19' E 008°30'0 0.0
2018-Apr-16 06:00N 44°19' E 008°30'0 0.0
2018-Apr-16 05:30N 44°19' E 008°30'0 0.1
2018-Apr-16 05:00N 44°19' E 008°30'1 1.7
2018-Apr-16 04:28N 44°18' E 008°31'0 0.2
2018-Apr-16 03:58N 44°18' E 008°31'0 0.1
2018-Apr-16 03:28N 44°18' E 008°31'0 0.1
2018-Apr-16 02:58N 44°18' E 008°31'0 0.1
2018-Apr-16 02:28N 44°18' E 008°31'0 0.0
2018-Apr-16 01:58N 44°18' E 008°31'0 0.0
2018-Apr-16 01:28N 44°18' E 008°31'0 0.0
2018-Apr-16 00:58N 44°18' E 008°31'0 0.1
2018-Apr-16 00:28N 44°18' E 008°31'0 0.0
2018-Apr-15 23:58N 44°18' E 008°31'0 0.0
2018-Apr-15 23:28N 44°18' E 008°31'0 0.0
2018-Apr-15 22:58N 44°18' E 008°31'0 0.0
2018-Apr-15 22:28N 44°18' E 008°31'0 0.0
2018-Apr-15 21:58N 44°18' E 008°31'0 0.0
2018-Apr-15 21:28N 44°18' E 008°31'0 0.0
2018-Apr-15 20:58N 44°18' E 008°31'0 0.0
2018-Apr-15 20:28N 44°18' E 008°31'0 0.0
2018-Apr-15 19:58N 44°18' E 008°31'0 0.0
2018-Apr-15 19:28N 44°18' E 008°31'0 0.0
2018-Apr-15 18:58N 44°18' E 008°31'0 0.0
2018-Apr-15 18:28N 44°18' E 008°31'0 0.0
2018-Apr-15 17:58N 44°18' E 008°31'0 0.0
2018-Apr-15 17:28N 44°18' E 008°31'0 0.0
2018-Apr-15 16:58N 44°18' E 008°31'0 0.0
2018-Apr-15 16:28N 44°18' E 008°31'0 0.0
2018-Apr-15 15:58N 44°18' E 008°31'0 0.0
2018-Apr-15 15:28N 44°18' E 008°31'0 0.0
2018-Apr-15 14:58N 44°18' E 008°31'0 0.0
2018-Apr-15 14:28N 44°18' E 008°31'0 0.0
2018-Apr-15 13:58N 44°18' E 008°31'0 0.0
2018-Apr-15 13:28N 44°18' E 008°31'0 0.0
2018-Apr-15 12:57N 44°18' E 008°31'1 1.6
2018-Apr-15 12:30N 44°17' E 008°31'5 9.0
2018-Apr-15 12:00N 44°13' E 008°31'4 8.9
2018-Apr-15 11:30N 44°08' E 008°30'5 9.3
2018-Apr-15 11:00N 44°04' E 008°27'5 9.6
2018-Apr-15 10:28N 43°60' E 008°23'46 9.9
2018-Apr-15 05:47N 43°30' E 007°35'310.5
2018-Apr-15 05:30N 43°28' E 007°31'510.0
2018-Apr-15 05:00N 43°25' E 007°26'510.0
2018-Apr-15 04:29N 43°22' E 007°20'510.1
2018-Apr-15 04:00N 43°19' E 007°15'510.6
2018-Apr-15 03:30N 43°16' E 007°09'611.0
2018-Apr-15 03:00N 43°12' E 007°03'  

Dump ship's entire track history